sensor_id;sensor_type;location;lat;lon;timestamp;temperature;humidity
22578;DHT22;11455;52.390;13.028;2023-05-10T00:01:47;15.40;1.00
22578;DHT22;11455;52.390;13.028;2023-05-10T00:04:13;15.40;1.00
22578;DHT22;11455;52.390;13.028;2023-05-10T00:06:39;15.40;1.00
22578;DHT22;11455;52.390;13.028;2023-05-10T00:09:04;15.40;1.00
22578;DHT22;11455;52.390;13.028;2023-05-10T00:11:30;15.40;1.00
22578;DHT22;11455;52.390;13.028;2023-05-10T00:13:56;15.30;1.00
22578;DHT22;11455;52.390;13.028;2023-05-10T00:16:21;15.40;1.00
22578;DHT22;11455;52.390;13.028;2023-05-10T00:18:47;15.30;1.00
22578;DHT22;11455;52.390;13.028;2023-05-10T00:21:13;15.30;1.00
22578;DHT22;11455;52.390;13.028;2023-05-10T00:23:38;15.20;1.00
22578;DHT22;11455;52.390;13.028;2023-05-10T00:26:04;15.20;1.00
22578;DHT22;11455;52.390;13.028;2023-05-10T00:28:30;15.20;1.00
22578;DHT22;11455;52.390;13.028;2023-05-10T00:30:57;15.20;1.00
22578;DHT22;11455;52.390;13.028;2023-05-10T00:33:23;15.20;1.00
22578;DHT22;11455;52.390;13.028;2023-05-10T00:35:49;15.10;1.00
22578;DHT22;11455;52.390;13.028;2023-05-10T00:38:14;15.10;1.00
22578;DHT22;11455;52.390;13.028;2023-05-10T00:40:40;15.10;1.00
22578;DHT22;11455;52.390;13.028;2023-05-10T00:43:12;14.90;1.00
22578;DHT22;11455;52.390;13.028;2023-05-10T00:45:38;14.90;1.00
22578;DHT22;11455;52.390;13.028;2023-05-10T00:48:05;14.90;1.00
22578;DHT22;11455;52.390;13.028;2023-05-10T00:50:31;14.80;1.00
22578;DHT22;11455;52.390;13.028;2023-05-10T00:52:58;14.70;1.00
22578;DHT22;11455;52.390;13.028;2023-05-10T00:55:27;14.80;1.00
22578;DHT22;11455;52.390;13.028;2023-05-10T00:57:53;14.80;1.00
22578;DHT22;11455;52.390;13.028;2023-05-10T01:00:21;14.90;1.00
22578;DHT22;11455;52.390;13.028;2023-05-10T01:02:49;14.90;1.00
22578;DHT22;11455;52.390;13.028;2023-05-10T01:05:15;14.90;1.00
22578;DHT22;11455;52.390;13.028;2023-05-10T01:07:41;14.90;1.00
22578;DHT22;11455;52.390;13.028;2023-05-10T01:10:09;14.80;1.00
22578;DHT22;11455;52.390;13.028;2023-05-10T01:12:36;14.80;1.00
22578;DHT22;11455;52.390;13.028;2023-05-10T01:15:03;14.70;1.00
22578;DHT22;11455;52.390;13.028;2023-05-10T01:17:28;14.70;1.00
22578;DHT22;11455;52.390;13.028;2023-05-10T01:19:54;14.80;1.00
22578;DHT22;11455;52.390;13.028;2023-05-10T01:22:30;14.80;1.00
22578;DHT22;11455;52.390;13.028;2023-05-10T01:35:35;14.60;1.00
22578;DHT22;11455;52.390;13.028;2023-05-10T01:43:00;14.60;1.00
22578;DHT22;11455;52.390;13.028;2023-05-10T01:45:28;14.60;1.00
22578;DHT22;11455;52.390;13.028;2023-05-10T01:48:06;14.60;1.00
22578;DHT22;11455;52.390;13.028;2023-05-10T01:50:32;14.70;1.00
22578;DHT22;11455;52.390;13.028;2023-05-10T01:53:00;14.60;1.00
22578;DHT22;11455;52.390;13.028;2023-05-10T01:55:30;14.60;1.00
22578;DHT22;11455;52.390;13.028;2023-05-10T01:58:07;14.60;1.00
22578;DHT22;11455;52.390;13.028;2023-05-10T02:00:34;14.60;1.00
22578;DHT22;11455;52.390;13.028;2023-05-10T02:03:01;14.50;1.00
22578;DHT22;11455;52.390;13.028;2023-05-10T02:05:29;14.60;1.00
22578;DHT22;11455;52.390;13.028;2023-05-10T02:07:56;14.50;1.00
22578;DHT22;11455;52.390;13.028;2023-05-10T02:10:22;14.50;1.00
22578;DHT22;11455;52.390;13.028;2023-05-10T02:12:48;14.40;1.00
22578;DHT22;11455;52.390;13.028;2023-05-10T02:15:15;14.40;1.00
22578;DHT22;11455;52.390;13.028;2023-05-10T02:17:43;14.50;1.00
22578;DHT22;11455;52.390;13.028;2023-05-10T02:20:09;14.40;1.00
22578;DHT22;11455;52.390;13.028;2023-05-10T02:22:35;14.30;1.00
22578;DHT22;11455;52.390;13.028;2023-05-10T02:25:02;14.30;1.00
22578;DHT22;11455;52.390;13.028;2023-05-10T02:27:28;14.30;1.00
22578;DHT22;11455;52.390;13.028;2023-05-10T02:29:54;14.30;1.00
22578;DHT22;11455;52.390;13.028;2023-05-10T02:32:21;14.20;1.00
22578;DHT22;11455;52.390;13.028;2023-05-10T02:34:47;14.20;1.00
22578;DHT22;11455;52.390;13.028;2023-05-10T02:37:19;14.20;1.00
22578;DHT22;11455;52.390;13.028;2023-05-10T02:39:49;14.20;1.00
22578;DHT22;11455;52.390;13.028;2023-05-10T02:42:18;14.20;1.00
22578;DHT22;11455;52.390;13.028;2023-05-10T02:44:47;14.20;1.00
22578;DHT22;11455;52.390;13.028;2023-05-10T02:47:14;14.20;1.00
22578;DHT22;11455;52.390;13.028;2023-05-10T02:49:40;14.20;1.00
22578;DHT22;11455;52.390;13.028;2023-05-10T02:52:06;14.20;1.00
22578;DHT22;11455;52.390;13.028;2023-05-10T02:54:39;14.20;1.00
22578;DHT22;11455;52.390;13.028;2023-05-10T02:57:06;14.20;1.00
22578;DHT22;11455;52.390;13.028;2023-05-10T02:59:32;14.20;1.00
22578;DHT22;11455;52.390;13.028;2023-05-10T03:01:59;14.10;1.00
22578;DHT22;11455;52.390;13.028;2023-05-10T03:04:25;14.10;1.00
22578;DHT22;11455;52.390;13.028;2023-05-10T03:06:54;14.10;1.00
22578;DHT22;11455;52.390;13.028;2023-05-10T03:09:19;14.00;1.00
22578;DHT22;11455;52.390;13.028;2023-05-10T03:11:54;14.10;1.00
22578;DHT22;11455;52.390;13.028;2023-05-10T03:16:47;14.00;1.00
22578;DHT22;11455;52.390;13.028;2023-05-10T03:19:20;14.00;1.00
22578;DHT22;11455;52.390;13.028;2023-05-10T03:21:49;14.10;1.00
22578;DHT22;11455;52.390;13.028;2023-05-10T03:24:16;14.10;1.00
22578;DHT22;11455;52.390;13.028;2023-05-10T03:26:43;14.00;1.00
22578;DHT22;11455;52.390;13.028;2023-05-10T03:29:14;13.90;1.00
22578;DHT22;11455;52.390;13.028;2023-05-10T03:31:40;13.90;1.00
22578;DHT22;11455;52.390;13.028;2023-05-10T03:34:06;14.00;1.00
22578;DHT22;11455;52.390;13.028;2023-05-10T03:36:32;14.00;1.00
22578;DHT22;11455;52.390;13.028;2023-05-10T03:38:58;14.10;1.00
22578;DHT22;11455;52.390;13.028;2023-05-10T03:41:24;14.00;1.00
22578;DHT22;11455;52.390;13.028;2023-05-10T03:43:51;14.00;1.00
22578;DHT22;11455;52.390;13.028;2023-05-10T03:46:16;13.90;1.00
22578;DHT22;11455;52.390;13.028;2023-05-10T03:48:42;13.90;1.00
22578;DHT22;11455;52.390;13.028;2023-05-10T03:51:08;13.90;1.00
22578;DHT22;11455;52.390;13.028;2023-05-10T03:53:33;13.90;1.00
22578;DHT22;11455;52.390;13.028;2023-05-10T03:55:59;13.90;1.00
22578;DHT22;11455;52.390;13.028;2023-05-10T03:58:25;13.90;1.00
22578;DHT22;11455;52.390;13.028;2023-05-10T04:00:51;13.80;1.00
22578;DHT22;11455;52.390;13.028;2023-05-10T04:03:16;13.80;1.00
22578;DHT22;11455;52.390;13.028;2023-05-10T04:05:42;13.80;1.00
22578;DHT22;11455;52.390;13.028;2023-05-10T04:08:11;13.80;1.00
22578;DHT22;11455;52.390;13.028;2023-05-10T04:10:36;13.80;1.00
22578;DHT22;11455;52.390;13.028;2023-05-10T04:13:02;13.70;1.00
22578;DHT22;11455;52.390;13.028;2023-05-10T04:15:28;13.80;1.00
22578;DHT22;11455;52.390;13.028;2023-05-10T04:17:53;13.70;1.00
22578;DHT22;11455;52.390;13.028;2023-05-10T04:20:21;13.70;1.00
22578;DHT22;11455;52.390;13.028;2023-05-10T04:22:47;13.70;1.00
22578;DHT22;11455;52.390;13.028;2023-05-10T04:25:13;13.80;1.00
22578;DHT22;11455;52.390;13.028;2023-05-10T04:27:43;13.80;1.00
22578;DHT22;11455;52.390;13.028;2023-05-10T04:30:09;13.80;1.00
22578;DHT22;11455;52.390;13.028;2023-05-10T04:32:34;13.70;1.00
22578;DHT22;11455;52.390;13.028;2023-05-10T04:35:00;13.70;1.00
22578;DHT22;11455;52.390;13.028;2023-05-10T04:37:28;13.70;1.00
22578;DHT22;11455;52.390;13.028;2023-05-10T04:39:54;13.60;1.00
22578;DHT22;11455;52.390;13.028;2023-05-10T04:42:20;13.70;1.00
22578;DHT22;11455;52.390;13.028;2023-05-10T04:44:45;13.70;1.00
22578;DHT22;11455;52.390;13.028;2023-05-10T04:47:11;13.60;1.00
22578;DHT22;11455;52.390;13.028;2023-05-10T04:49:40;13.60;1.00
22578;DHT22;11455;52.390;13.028;2023-05-10T04:52:06;13.60;1.00
22578;DHT22;11455;52.390;13.028;2023-05-10T04:54:32;13.60;1.00
22578;DHT22;11455;52.390;13.028;2023-05-10T04:56:57;13.60;1.00
22578;DHT22;11455;52.390;13.028;2023-05-10T04:59:23;13.70;1.00
22578;DHT22;11455;52.390;13.028;2023-05-10T05:01:49;13.60;1.00
22578;DHT22;11455;52.390;13.028;2023-05-10T05:04:14;13.60;1.00
22578;DHT22;11455;52.390;13.028;2023-05-10T05:06:40;13.70;1.00
22578;DHT22;11455;52.390;13.028;2023-05-10T05:09:06;13.80;1.00
22578;DHT22;11455;52.390;13.028;2023-05-10T05:11:31;13.80;1.00
22578;DHT22;11455;52.390;13.028;2023-05-10T05:13:57;13.80;1.00
22578;DHT22;11455;52.390;13.028;2023-05-10T05:16:24;13.80;1.00
22578;DHT22;11455;52.390;13.028;2023-05-10T05:18:50;13.90;1.00
22578;DHT22;11455;52.390;13.028;2023-05-10T05:21:16;13.90;1.00
22578;DHT22;11455;52.390;13.028;2023-05-10T05:23:42;14.00;1.00
22578;DHT22;11455;52.390;13.028;2023-05-10T05:26:08;14.10;1.00
22578;DHT22;11455;52.390;13.028;2023-05-10T05:28:34;14.20;1.00
22578;DHT22;11455;52.390;13.028;2023-05-10T05:31:03;14.10;1.00
22578;DHT22;11455;52.390;13.028;2023-05-10T05:33:28;14.20;1.00
22578;DHT22;11455;52.390;13.028;2023-05-10T05:35:56;14.20;1.00
22578;DHT22;11455;52.390;13.028;2023-05-10T05:38:22;14.20;1.00
22578;DHT22;11455;52.390;13.028;2023-05-10T05:40:48;14.30;1.00
22578;DHT22;11455;52.390;13.028;2023-05-10T05:43:13;14.30;1.00
22578;DHT22;11455;52.390;13.028;2023-05-10T05:45:39;14.30;1.00
22578;DHT22;11455;52.390;13.028;2023-05-10T05:48:06;14.40;1.00
22578;DHT22;11455;52.390;13.028;2023-05-10T05:50:32;14.40;1.00
22578;DHT22;11455;52.390;13.028;2023-05-10T05:52:57;14.40;1.00
22578;DHT22;11455;52.390;13.028;2023-05-10T05:55:23;14.40;1.00
22578;DHT22;11455;52.390;13.028;2023-05-10T05:57:51;14.40;1.00
22578;DHT22;11455;52.390;13.028;2023-05-10T06:00:17;14.30;1.00
22578;DHT22;11455;52.390;13.028;2023-05-10T06:02:44;14.30;1.00
22578;DHT22;11455;52.390;13.028;2023-05-10T06:05:10;14.30;1.00
22578;DHT22;11455;52.390;13.028;2023-05-10T06:07:39;14.30;1.00
22578;DHT22;11455;52.390;13.028;2023-05-10T06:10:07;14.40;1.00
22578;DHT22;11455;52.390;13.028;2023-05-10T06:12:33;14.40;1.00
22578;DHT22;11455;52.390;13.028;2023-05-10T06:14:58;14.50;1.00
22578;DHT22;11455;52.390;13.028;2023-05-10T06:17:24;14.50;1.00
22578;DHT22;11455;52.390;13.028;2023-05-10T06:19:50;14.60;1.00
22578;DHT22;11455;52.390;13.028;2023-05-10T06:22:16;14.60;1.00
22578;DHT22;11455;52.390;13.028;2023-05-10T06:24:41;14.60;1.00
22578;DHT22;11455;52.390;13.028;2023-05-10T06:27:07;14.70;1.00
22578;DHT22;11455;52.390;13.028;2023-05-10T06:29:32;14.70;1.00
22578;DHT22;11455;52.390;13.028;2023-05-10T06:31:58;14.60;1.00
22578;DHT22;11455;52.390;13.028;2023-05-10T06:34:24;14.70;1.00
22578;DHT22;11455;52.390;13.028;2023-05-10T06:36:49;14.60;1.00
22578;DHT22;11455;52.390;13.028;2023-05-10T06:39:17;14.70;1.00
22578;DHT22;11455;52.390;13.028;2023-05-10T06:41:43;14.80;1.00
22578;DHT22;11455;52.390;13.028;2023-05-10T06:44:08;14.90;1.00
22578;DHT22;11455;52.390;13.028;2023-05-10T06:46:38;15.00;1.00
22578;DHT22;11455;52.390;13.028;2023-05-10T06:49:03;15.00;1.00
22578;DHT22;11455;52.390;13.028;2023-05-10T06:51:29;15.10;1.00
22578;DHT22;11455;52.390;13.028;2023-05-10T06:53:56;15.20;1.00
22578;DHT22;11455;52.390;13.028;2023-05-10T06:56:21;15.20;1.00
22578;DHT22;11455;52.390;13.028;2023-05-10T06:58:47;15.10;1.00
22578;DHT22;11455;52.390;13.028;2023-05-10T07:01:13;15.10;1.00
22578;DHT22;11455;52.390;13.028;2023-05-10T07:03:38;15.20;1.00
22578;DHT22;11455;52.390;13.028;2023-05-10T07:06:04;15.30;1.00
22578;DHT22;11455;52.390;13.028;2023-05-10T07:08:32;15.30;1.00
22578;DHT22;11455;52.390;13.028;2023-05-10T07:11:01;15.40;1.00
22578;DHT22;11455;52.390;13.028;2023-05-10T07:13:29;15.40;1.00
22578;DHT22;11455;52.390;13.028;2023-05-10T07:15:55;15.50;1.00
22578;DHT22;11455;52.390;13.028;2023-05-10T07:18:20;15.50;1.00
22578;DHT22;11455;52.390;13.028;2023-05-10T07:20:46;15.50;1.00
22578;DHT22;11455;52.390;13.028;2023-05-10T07:23:11;15.60;1.00
22578;DHT22;11455;52.390;13.028;2023-05-10T07:25:37;15.60;1.00
22578;DHT22;11455;52.390;13.028;2023-05-10T07:28:03;15.70;1.00
22578;DHT22;11455;52.390;13.028;2023-05-10T07:30:28;15.80;1.00
22578;DHT22;11455;52.390;13.028;2023-05-10T07:32:55;15.90;1.00
22578;DHT22;11455;52.390;13.028;2023-05-10T07:35:20;15.90;1.00
22578;DHT22;11455;52.390;13.028;2023-05-10T07:37:48;15.80;1.00
22578;DHT22;11455;52.390;13.028;2023-05-10T07:40:14;15.90;1.00
22578;DHT22;11455;52.390;13.028;2023-05-10T07:42:40;15.90;1.00
22578;DHT22;11455;52.390;13.028;2023-05-10T07:45:05;15.90;1.00
22578;DHT22;11455;52.390;13.028;2023-05-10T07:47:31;15.90;1.00
22578;DHT22;11455;52.390;13.028;2023-05-10T07:49:57;16.00;1.00
22578;DHT22;11455;52.390;13.028;2023-05-10T07:52:22;16.10;1.00
22578;DHT22;11455;52.390;13.028;2023-05-10T07:54:50;16.10;1.00
22578;DHT22;11455;52.390;13.028;2023-05-10T07:57:17;16.20;1.00
22578;DHT22;11455;52.390;13.028;2023-05-10T07:59:43;16.30;1.00
22578;DHT22;11455;52.390;13.028;2023-05-10T08:02:09;16.30;1.00
22578;DHT22;11455;52.390;13.028;2023-05-10T08:04:35;16.30;1.00
22578;DHT22;11455;52.390;13.028;2023-05-10T08:07:01;16.40;1.00
22578;DHT22;11455;52.390;13.028;2023-05-10T08:09:26;16.60;1.00
22578;DHT22;11455;52.390;13.028;2023-05-10T08:11:52;16.70;1.00
22578;DHT22;11455;52.390;13.028;2023-05-10T08:14:18;16.80;1.00
22578;DHT22;11455;52.390;13.028;2023-05-10T08:16:43;16.90;1.00
22578;DHT22;11455;52.390;13.028;2023-05-10T08:19:09;17.10;1.00
22578;DHT22;11455;52.390;13.028;2023-05-10T08:21:34;17.10;1.00
22578;DHT22;11455;52.390;13.028;2023-05-10T08:24:01;17.10;1.00
22578;DHT22;11455;52.390;13.028;2023-05-10T08:26:27;17.20;1.00
22578;DHT22;11455;52.390;13.028;2023-05-10T08:28:53;17.10;1.00
22578;DHT22;11455;52.390;13.028;2023-05-10T08:31:18;17.20;1.00
22578;DHT22;11455;52.390;13.028;2023-05-10T08:33:44;17.20;1.00
22578;DHT22;11455;52.390;13.028;2023-05-10T08:36:10;17.30;1.00
22578;DHT22;11455;52.390;13.028;2023-05-10T08:38:39;17.40;1.00
22578;DHT22;11455;52.390;13.028;2023-05-10T08:41:05;17.50;1.00
22578;DHT22;11455;52.390;13.028;2023-05-10T08:43:31;17.60;1.00
22578;DHT22;11455;52.390;13.028;2023-05-10T08:45:59;17.70;1.00
22578;DHT22;11455;52.390;13.028;2023-05-10T08:48:25;17.80;1.00
22578;DHT22;11455;52.390;13.028;2023-05-10T08:50:54;17.90;1.00
22578;DHT22;11455;52.390;13.028;2023-05-10T08:53:24;17.90;1.00
22578;DHT22;11455;52.390;13.028;2023-05-10T08:55:52;18.00;1.00
22578;DHT22;11455;52.390;13.028;2023-05-10T08:58:18;18.10;1.00
22578;DHT22;11455;52.390;13.028;2023-05-10T09:00:44;18.20;1.00
22578;DHT22;11455;52.390;13.028;2023-05-10T09:03:11;18.20;1.00
22578;DHT22;11455;52.390;13.028;2023-05-10T09:05:37;18.40;1.00
22578;DHT22;11455;52.390;13.028;2023-05-10T09:08:03;18.40;1.00
22578;DHT22;11455;52.390;13.028;2023-05-10T09:10:28;18.50;1.00
22578;DHT22;11455;52.390;13.028;2023-05-10T09:12:56;18.40;1.00
22578;DHT22;11455;52.390;13.028;2023-05-10T09:15:21;18.40;1.00
22578;DHT22;11455;52.390;13.028;2023-05-10T09:17:47;18.40;1.00
22578;DHT22;11455;52.390;13.028;2023-05-10T09:20:16;18.40;1.00
22578;DHT22;11455;52.390;13.028;2023-05-10T09:22:46;18.40;1.00
22578;DHT22;11455;52.390;13.028;2023-05-10T09:25:12;18.40;1.00
22578;DHT22;11455;52.390;13.028;2023-05-10T09:27:41;18.40;1.00
22578;DHT22;11455;52.390;13.028;2023-05-10T09:30:07;18.50;1.00
22578;DHT22;11455;52.390;13.028;2023-05-10T09:32:40;18.60;1.00
22578;DHT22;11455;52.390;13.028;2023-05-10T09:35:12;18.80;1.00
22578;DHT22;11455;52.390;13.028;2023-05-10T09:37:42;18.90;1.00
22578;DHT22;11455;52.390;13.028;2023-05-10T09:40:12;18.80;1.00
22578;DHT22;11455;52.390;13.028;2023-05-10T09:42:38;18.80;1.00
22578;DHT22;11455;52.390;13.028;2023-05-10T09:45:04;18.90;1.00
22578;DHT22;11455;52.390;13.028;2023-05-10T09:47:36;19.00;1.00
22578;DHT22;11455;52.390;13.028;2023-05-10T09:50:02;19.10;1.00
22578;DHT22;11455;52.390;13.028;2023-05-10T09:52:30;19.20;1.00
22578;DHT22;11455;52.390;13.028;2023-05-10T09:54:56;19.30;1.00
22578;DHT22;11455;52.390;13.028;2023-05-10T09:57:22;19.30;1.00
22578;DHT22;11455;52.390;13.028;2023-05-10T09:59:48;19.40;1.00
22578;DHT22;11455;52.390;13.028;2023-05-10T10:02:14;19.50;1.00
22578;DHT22;11455;52.390;13.028;2023-05-10T10:04:40;19.60;1.00
22578;DHT22;11455;52.390;13.028;2023-05-10T10:07:06;19.60;1.00
22578;DHT22;11455;52.390;13.028;2023-05-10T10:09:31;19.60;1.00
22578;DHT22;11455;52.390;13.028;2023-05-10T10:11:57;19.60;1.00
22578;DHT22;11455;52.390;13.028;2023-05-10T10:14:24;19.70;1.00
22578;DHT22;11455;52.390;13.028;2023-05-10T10:16:49;19.80;1.00
22578;DHT22;11455;52.390;13.028;2023-05-10T10:19:16;19.90;1.00
22578;DHT22;11455;52.390;13.028;2023-05-10T10:21:42;19.90;1.00
22578;DHT22;11455;52.390;13.028;2023-05-10T10:24:08;19.90;1.00
22578;DHT22;11455;52.390;13.028;2023-05-10T10:26:33;19.90;1.00
22578;DHT22;11455;52.390;13.028;2023-05-10T10:31:34;19.90;1.00
22578;DHT22;11455;52.390;13.028;2023-05-10T10:34:08;20.00;1.00
22578;DHT22;11455;52.390;13.028;2023-05-10T10:36:47;20.10;1.00
22578;DHT22;11455;52.390;13.028;2023-05-10T10:39:13;20.10;1.00
22578;DHT22;11455;52.390;13.028;2023-05-10T10:41:52;20.10;1.00
22578;DHT22;11455;52.390;13.028;2023-05-10T10:50:04;20.20;1.00
22578;DHT22;11455;52.390;13.028;2023-05-10T10:52:23;20.30;1.00
22578;DHT22;11455;52.390;13.028;2023-05-10T10:57:27;20.30;1.00
22578;DHT22;11455;52.390;13.028;2023-05-10T11:02:43;20.30;1.00
22578;DHT22;11455;52.390;13.028;2023-05-10T11:05:22;20.30;1.00
22578;DHT22;11455;52.390;13.028;2023-05-10T11:07:52;20.20;1.00
22578;DHT22;11455;52.390;13.028;2023-05-10T11:10:20;20.30;1.00
22578;DHT22;11455;52.390;13.028;2023-05-10T11:13:01;20.30;1.00
22578;DHT22;11455;52.390;13.028;2023-05-10T11:17:56;20.30;1.00
22578;DHT22;11455;52.390;13.028;2023-05-10T11:20:22;20.30;1.00
22578;DHT22;11455;52.390;13.028;2023-05-10T11:22:53;20.40;1.00
22578;DHT22;11455;52.390;13.028;2023-05-10T11:25:19;20.40;1.00
22578;DHT22;11455;52.390;13.028;2023-05-10T11:27:47;20.60;1.00
22578;DHT22;11455;52.390;13.028;2023-05-10T11:30:13;20.60;1.00
22578;DHT22;11455;52.390;13.028;2023-05-10T11:32:39;20.70;1.00
22578;DHT22;11455;52.390;13.028;2023-05-10T11:35:08;20.80;1.00
22578;DHT22;11455;52.390;13.028;2023-05-10T11:37:35;20.90;1.00
22578;DHT22;11455;52.390;13.028;2023-05-10T11:40:01;21.00;1.00
22578;DHT22;11455;52.390;13.028;2023-05-10T11:42:27;21.10;1.00
22578;DHT22;11455;52.390;13.028;2023-05-10T11:44:53;21.10;1.00
22578;DHT22;11455;52.390;13.028;2023-05-10T11:47:19;21.10;1.00
22578;DHT22;11455;52.390;13.028;2023-05-10T11:49:45;21.20;1.00
22578;DHT22;11455;52.390;13.028;2023-05-10T11:52:13;21.20;1.00
22578;DHT22;11455;52.390;13.028;2023-05-10T11:54:50;21.20;1.00
22578;DHT22;11455;52.390;13.028;2023-05-10T11:57:19;21.20;1.00
22578;DHT22;11455;52.390;13.028;2023-05-10T11:59:49;21.30;1.00
22578;DHT22;11455;52.390;13.028;2023-05-10T12:02:20;21.50;1.00
22578;DHT22;11455;52.390;13.028;2023-05-10T12:04:51;21.50;1.00
22578;DHT22;11455;52.390;13.028;2023-05-10T12:07:17;21.50;1.00
22578;DHT22;11455;52.390;13.028;2023-05-10T12:09:43;21.60;1.00
22578;DHT22;11455;52.390;13.028;2023-05-10T12:12:09;21.80;1.00
22578;DHT22;11455;52.390;13.028;2023-05-10T12:14:35;21.90;1.00
22578;DHT22;11455;52.390;13.028;2023-05-10T12:17:01;22.00;1.00
22578;DHT22;11455;52.390;13.028;2023-05-10T12:19:26;22.00;1.00
22578;DHT22;11455;52.390;13.028;2023-05-10T12:21:52;22.00;1.00
22578;DHT22;11455;52.390;13.028;2023-05-10T12:24:18;22.00;1.00
22578;DHT22;11455;52.390;13.028;2023-05-10T12:26:47;22.20;1.00
22578;DHT22;11455;52.390;13.028;2023-05-10T12:29:16;22.40;1.00
22578;DHT22;11455;52.390;13.028;2023-05-10T12:31:56;22.50;1.00
22578;DHT22;11455;52.390;13.028;2023-05-10T12:34:25;22.60;1.00
22578;DHT22;11455;52.390;13.028;2023-05-10T12:36:54;22.70;1.00
22578;DHT22;11455;52.390;13.028;2023-05-10T12:39:20;22.80;99.90
22578;DHT22;11455;52.390;13.028;2023-05-10T12:41:46;22.90;99.90
22578;DHT22;11455;52.390;13.028;2023-05-10T12:44:12;23.00;99.90
22578;DHT22;11455;52.390;13.028;2023-05-10T12:46:37;22.90;99.90
22578;DHT22;11455;52.390;13.028;2023-05-10T12:49:03;23.10;99.90
22578;DHT22;11455;52.390;13.028;2023-05-10T12:51:29;23.00;99.90
22578;DHT22;11455;52.390;13.028;2023-05-10T12:53:54;22.90;99.90
22578;DHT22;11455;52.390;13.028;2023-05-10T12:56:20;22.80;99.90
22578;DHT22;11455;52.390;13.028;2023-05-10T12:58:46;22.90;99.90
22578;DHT22;11455;52.390;13.028;2023-05-10T13:01:13;23.00;99.90
22578;DHT22;11455;52.390;13.028;2023-05-10T13:03:39;23.00;99.90
22578;DHT22;11455;52.390;13.028;2023-05-10T13:06:05;22.90;99.90
22578;DHT22;11455;52.390;13.028;2023-05-10T13:08:31;22.90;99.90
22578;DHT22;11455;52.390;13.028;2023-05-10T13:10:59;22.80;99.90
22578;DHT22;11455;52.390;13.028;2023-05-10T13:13:24;22.60;99.90
22578;DHT22;11455;52.390;13.028;2023-05-10T13:15:50;22.40;99.90
22578;DHT22;11455;52.390;13.028;2023-05-10T13:18:16;22.40;99.90
22578;DHT22;11455;52.390;13.028;2023-05-10T13:20:41;22.30;99.90
22578;DHT22;11455;52.390;13.028;2023-05-10T13:23:09;22.40;99.90
22578;DHT22;11455;52.390;13.028;2023-05-10T13:25:35;22.40;99.90
22578;DHT22;11455;52.390;13.028;2023-05-10T13:28:01;22.60;99.90
22578;DHT22;11455;52.390;13.028;2023-05-10T13:30:30;22.80;99.90
22578;DHT22;11455;52.390;13.028;2023-05-10T13:32:58;23.00;99.90
22578;DHT22;11455;52.390;13.028;2023-05-10T13:35:25;22.90;99.90
22578;DHT22;11455;52.390;13.028;2023-05-10T13:37:50;22.90;99.90
22578;DHT22;11455;52.390;13.028;2023-05-10T13:40:17;22.80;99.90
22578;DHT22;11455;52.390;13.028;2023-05-10T13:42:42;22.70;99.90
22578;DHT22;11455;52.390;13.028;2023-05-10T13:45:08;22.70;99.90
22578;DHT22;11455;52.390;13.028;2023-05-10T13:47:34;22.70;99.90
22578;DHT22;11455;52.390;13.028;2023-05-10T13:50:02;22.80;99.90
22578;DHT22;11455;52.390;13.028;2023-05-10T13:52:28;22.90;99.90
22578;DHT22;11455;52.390;13.028;2023-05-10T13:54:54;23.00;99.90
22578;DHT22;11455;52.390;13.028;2023-05-10T13:57:23;23.00;99.90
22578;DHT22;11455;52.390;13.028;2023-05-10T13:59:49;22.80;99.90
22578;DHT22;11455;52.390;13.028;2023-05-10T14:02:15;22.70;99.90
22578;DHT22;11455;52.390;13.028;2023-05-10T14:04:43;22.50;99.90
22578;DHT22;11455;52.390;13.028;2023-05-10T14:07:11;22.40;99.90
22578;DHT22;11455;52.390;13.028;2023-05-10T14:09:37;22.30;99.90
22578;DHT22;11455;52.390;13.028;2023-05-10T14:12:03;22.30;99.90
22578;DHT22;11455;52.390;13.028;2023-05-10T14:14:29;22.20;99.90
22578;DHT22;11455;52.390;13.028;2023-05-10T14:16:54;22.20;99.90
22578;DHT22;11455;52.390;13.028;2023-05-10T14:19:20;22.20;99.90
22578;DHT22;11455;52.390;13.028;2023-05-10T14:21:46;22.20;99.90
22578;DHT22;11455;52.390;13.028;2023-05-10T14:24:11;22.20;99.90
22578;DHT22;11455;52.390;13.028;2023-05-10T14:26:37;22.20;99.90
22578;DHT22;11455;52.390;13.028;2023-05-10T14:29:03;22.20;99.90
22578;DHT22;11455;52.390;13.028;2023-05-10T14:31:31;22.10;99.90
22578;DHT22;11455;52.390;13.028;2023-05-10T14:33:56;22.00;99.90
22578;DHT22;11455;52.390;13.028;2023-05-10T14:36:23;22.00;99.90
22578;DHT22;11455;52.390;13.028;2023-05-10T14:38:49;21.90;99.90
22578;DHT22;11455;52.390;13.028;2023-05-10T14:41:15;22.00;99.90
22578;DHT22;11455;52.390;13.028;2023-05-10T14:43:45;21.90;99.90
22578;DHT22;11455;52.390;13.028;2023-05-10T14:46:11;21.90;99.90
22578;DHT22;11455;52.390;13.028;2023-05-10T14:48:36;21.90;99.90
22578;DHT22;11455;52.390;13.028;2023-05-10T14:51:02;21.90;99.90
22578;DHT22;11455;52.390;13.028;2023-05-10T14:53:29;21.90;99.90
22578;DHT22;11455;52.390;13.028;2023-05-10T14:55:57;21.80;99.90
22578;DHT22;11455;52.390;13.028;2023-05-10T14:58:23;21.80;99.90
22578;DHT22;11455;52.390;13.028;2023-05-10T15:00:49;21.90;99.90
22578;DHT22;11455;52.390;13.028;2023-05-10T15:03:14;21.80;1.00
22578;DHT22;11455;52.390;13.028;2023-05-10T15:05:40;21.80;1.00
22578;DHT22;11455;52.390;13.028;2023-05-10T15:08:09;21.70;1.00
22578;DHT22;11455;52.390;13.028;2023-05-10T15:10:35;21.60;1.00
22578;DHT22;11455;52.390;13.028;2023-05-10T15:13:03;21.60;1.00
22578;DHT22;11455;52.390;13.028;2023-05-10T15:15:28;21.60;1.00
22578;DHT22;11455;52.390;13.028;2023-05-10T15:17:54;21.60;1.00
22578;DHT22;11455;52.390;13.028;2023-05-10T15:20:20;21.50;1.00
22578;DHT22;11455;52.390;13.028;2023-05-10T15:22:45;21.50;1.00
22578;DHT22;11455;52.390;13.028;2023-05-10T15:25:12;21.50;1.00
22578;DHT22;11455;52.390;13.028;2023-05-10T15:27:38;21.40;1.00
22578;DHT22;11455;52.390;13.028;2023-05-10T15:30:04;21.50;1.00
22578;DHT22;11455;52.390;13.028;2023-05-10T15:32:29;21.50;1.00
22578;DHT22;11455;52.390;13.028;2023-05-10T15:34:55;21.50;1.00
22578;DHT22;11455;52.390;13.028;2023-05-10T15:37:21;21.50;1.00
22578;DHT22;11455;52.390;13.028;2023-05-10T15:39:48;21.50;1.00
22578;DHT22;11455;52.390;13.028;2023-05-10T15:42:14;21.50;1.00
22578;DHT22;11455;52.390;13.028;2023-05-10T15:44:39;21.50;1.00
22578;DHT22;11455;52.390;13.028;2023-05-10T15:47:07;21.50;1.00
22578;DHT22;11455;52.390;13.028;2023-05-10T15:49:33;21.50;1.00
22578;DHT22;11455;52.390;13.028;2023-05-10T15:51:59;21.30;1.00
22578;DHT22;11455;52.390;13.028;2023-05-10T15:54:25;21.30;1.00
22578;DHT22;11455;52.390;13.028;2023-05-10T15:56:53;21.30;1.00
22578;DHT22;11455;52.390;13.028;2023-05-10T15:59:19;21.30;1.00